San Esteban, Argentina
Current Conditions -  °F | °C
As of 3:00 AM on Monday 24 Nov 2014 (Local Time) from SACO Reporting Station
Scattered Clouds Scattered Clouds  
Wind Chill: 64°   Ceiling: Unl
Heat Index: 64°   Visibility: 6mi
Dew Point: 59°   Wind: 3mph
Humidity: 83%   Direction: 360°N
Pressure: 29.65"   Gusts: NA
Location:  30.92°S, 64.55°W
Report Text: SACO 240600Z 36003KT 9999 FEW040CB SCT100 18/15 Q1004 RMK CB OBS TO SW
Loading
Personal Weather Stations






























Interactive Weather Map New forecast layout! Learn more

10-Day Weather Forecast

Advertisements
Track Severe Weather on mobile